sensor_id;sensor_type;location;lat;lon;timestamp;temperature;humidity
76263;DHT22;65080;50.908;6.916;2023-09-18T00:00:50;23.30;68.20
76263;DHT22;65080;50.908;6.916;2023-09-18T00:03:18;23.30;68.30
76263;DHT22;65080;50.908;6.916;2023-09-18T00:05:47;23.30;68.30
76263;DHT22;65080;50.908;6.916;2023-09-18T00:08:17;23.30;68.40
76263;DHT22;65080;50.908;6.916;2023-09-18T00:10:47;23.20;68.30
76263;DHT22;65080;50.908;6.916;2023-09-18T00:13:17;23.20;68.30
76263;DHT22;65080;50.908;6.916;2023-09-18T00:15:45;23.20;68.40
76263;DHT22;65080;50.908;6.916;2023-09-18T00:18:17;23.20;68.40
76263;DHT22;65080;50.908;6.916;2023-09-18T00:20:46;23.20;68.40
76263;DHT22;65080;50.908;6.916;2023-09-18T00:23:15;23.20;68.50
76263;DHT22;65080;50.908;6.916;2023-09-18T00:25:43;23.20;68.40
76263;DHT22;65080;50.908;6.916;2023-09-18T00:28:12;23.20;68.50
76263;DHT22;65080;50.908;6.916;2023-09-18T00:30:46;23.20;68.50
76263;DHT22;65080;50.908;6.916;2023-09-18T00:33:17;23.20;68.50
76263;DHT22;65080;50.908;6.916;2023-09-18T00:35:47;23.10;68.50
76263;DHT22;65080;50.908;6.916;2023-09-18T00:38:15;23.10;68.50
76263;DHT22;65080;50.908;6.916;2023-09-18T00:40:44;23.10;68.50
76263;DHT22;65080;50.908;6.916;2023-09-18T00:43:13;23.10;68.50
76263;DHT22;65080;50.908;6.916;2023-09-18T00:45:43;23.10;68.60
76263;DHT22;65080;50.908;6.916;2023-09-18T00:48:12;23.00;68.50
76263;DHT22;65080;50.908;6.916;2023-09-18T00:50:44;23.00;68.60
76263;DHT22;65080;50.908;6.916;2023-09-18T00:53:15;23.00;68.60
76263;DHT22;65080;50.908;6.916;2023-09-18T00:55:45;23.10;68.70
76263;DHT22;65080;50.908;6.916;2023-09-18T00:58:13;23.00;68.60
76263;DHT22;65080;50.908;6.916;2023-09-18T01:00:42;23.00;68.70
76263;DHT22;65080;50.908;6.916;2023-09-18T01:03:11;23.00;68.70
76263;DHT22;65080;50.908;6.916;2023-09-18T01:05:40;22.90;68.70
76263;DHT22;65080;50.908;6.916;2023-09-18T01:08:09;22.90;68.80
76263;DHT22;65080;50.908;6.916;2023-09-18T01:10:44;22.80;68.70
76263;DHT22;65080;50.908;6.916;2023-09-18T01:13:22;22.80;68.80
76263;DHT22;65080;50.908;6.916;2023-09-18T01:15:54;22.80;68.90
76263;DHT22;65080;50.908;6.916;2023-09-18T01:18:25;22.80;68.90
76263;DHT22;65080;50.908;6.916;2023-09-18T01:20:54;22.80;68.90
76263;DHT22;65080;50.908;6.916;2023-09-18T01:23:23;22.80;68.90
76263;DHT22;65080;50.908;6.916;2023-09-18T01:25:51;22.80;68.90
76263;DHT22;65080;50.908;6.916;2023-09-18T01:28:20;22.80;68.90
76263;DHT22;65080;50.908;6.916;2023-09-18T01:30:48;22.70;68.90
76263;DHT22;65080;50.908;6.916;2023-09-18T01:33:17;22.60;68.80
76263;DHT22;65080;50.908;6.916;2023-09-18T01:35:47;22.70;69.00
76263;DHT22;65080;50.908;6.916;2023-09-18T01:38:16;22.70;68.90
76263;DHT22;65080;50.908;6.916;2023-09-18T01:40:45;22.70;68.90
76263;DHT22;65080;50.908;6.916;2023-09-18T01:43:14;22.70;68.90
76263;DHT22;65080;50.908;6.916;2023-09-18T01:45:42;22.70;68.90
76263;DHT22;65080;50.908;6.916;2023-09-18T01:48:11;22.70;68.90
76263;DHT22;65080;50.908;6.916;2023-09-18T01:50:40;22.70;68.80
76263;DHT22;65080;50.908;6.916;2023-09-18T01:53:08;22.80;69.00
76263;DHT22;65080;50.908;6.916;2023-09-18T01:55:36;22.80;68.90
76263;DHT22;65080;50.908;6.916;2023-09-18T01:58:06;22.80;68.90
76263;DHT22;65080;50.908;6.916;2023-09-18T02:00:34;22.80;68.90
76263;DHT22;65080;50.908;6.916;2023-09-18T02:03:03;22.80;68.90
76263;DHT22;65080;50.908;6.916;2023-09-18T02:05:52;22.80;69.00
76263;DHT22;65080;50.908;6.916;2023-09-18T02:08:20;22.80;69.00
76263;DHT22;65080;50.908;6.916;2023-09-18T02:10:48;22.80;69.00
76263;DHT22;65080;50.908;6.916;2023-09-18T02:13:18;22.80;69.00
76263;DHT22;65080;50.908;6.916;2023-09-18T02:15:46;22.80;68.90
76263;DHT22;65080;50.908;6.916;2023-09-18T02:18:14;22.80;69.00
76263;DHT22;65080;50.908;6.916;2023-09-18T02:20:43;22.80;69.10
76263;DHT22;65080;50.908;6.916;2023-09-18T02:23:14;22.70;69.00
76263;DHT22;65080;50.908;6.916;2023-09-18T02:25:43;22.80;69.10
76263;DHT22;65080;50.908;6.916;2023-09-18T02:28:11;22.70;69.10
76263;DHT22;65080;50.908;6.916;2023-09-18T02:30:41;22.80;69.20
76263;DHT22;65080;50.908;6.916;2023-09-18T02:33:12;22.80;69.20
76263;DHT22;65080;50.908;6.916;2023-09-18T02:35:40;22.80;69.20
76263;DHT22;65080;50.908;6.916;2023-09-18T02:38:10;22.80;69.30
76263;DHT22;65080;50.908;6.916;2023-09-18T02:40:38;22.80;69.40
76263;DHT22;65080;50.908;6.916;2023-09-18T02:43:06;22.80;69.40
76263;DHT22;65080;50.908;6.916;2023-09-18T02:45:35;22.80;69.40
76263;DHT22;65080;50.908;6.916;2023-09-18T02:48:05;22.80;69.40
76263;DHT22;65080;50.908;6.916;2023-09-18T02:50:33;22.80;69.50
76263;DHT22;65080;50.908;6.916;2023-09-18T02:53:01;22.90;69.70
76263;DHT22;65080;50.908;6.916;2023-09-18T02:55:30;22.90;69.70
76263;DHT22;65080;50.908;6.916;2023-09-18T02:57:58;22.90;69.80
76263;DHT22;65080;50.908;6.916;2023-09-18T03:00:27;22.90;70.00
76263;DHT22;65080;50.908;6.916;2023-09-18T03:03:12;22.90;70.00
76263;DHT22;65080;50.908;6.916;2023-09-18T03:05:41;22.80;70.00
76263;DHT22;65080;50.908;6.916;2023-09-18T03:08:10;22.80;70.10
76263;DHT22;65080;50.908;6.916;2023-09-18T03:10:40;22.70;70.30
76263;DHT22;65080;50.908;6.916;2023-09-18T03:13:10;22.70;70.50
76263;DHT22;65080;50.908;6.916;2023-09-18T03:15:39;22.60;70.60
76263;DHT22;65080;50.908;6.916;2023-09-18T03:18:07;22.60;70.80
76263;DHT22;65080;50.908;6.916;2023-09-18T03:20:37;22.50;70.90
76263;DHT22;65080;50.908;6.916;2023-09-18T03:23:05;22.50;71.10
76263;DHT22;65080;50.908;6.916;2023-09-18T03:25:35;22.40;71.20
76263;DHT22;65080;50.908;6.916;2023-09-18T03:28:17;22.40;71.50
76263;DHT22;65080;50.908;6.916;2023-09-18T03:30:45;22.30;71.60
76263;DHT22;65080;50.908;6.916;2023-09-18T03:33:13;22.30;71.70
76263;DHT22;65080;50.908;6.916;2023-09-18T03:35:47;22.20;71.70
76263;DHT22;65080;50.908;6.916;2023-09-18T03:38:16;22.20;71.80
76263;DHT22;65080;50.908;6.916;2023-09-18T03:40:45;22.30;72.00
76263;DHT22;65080;50.908;6.916;2023-09-18T03:43:14;22.30;72.00
76263;DHT22;65080;50.908;6.916;2023-09-18T03:45:42;22.20;72.00
76263;DHT22;65080;50.908;6.916;2023-09-18T03:48:10;22.20;72.00
76263;DHT22;65080;50.908;6.916;2023-09-18T03:50:39;22.20;72.00
76263;DHT22;65080;50.908;6.916;2023-09-18T03:53:09;22.30;72.10
76263;DHT22;65080;50.908;6.916;2023-09-18T03:55:37;22.30;72.20
76263;DHT22;65080;50.908;6.916;2023-09-18T03:58:06;22.30;72.10
76263;DHT22;65080;50.908;6.916;2023-09-18T04:00:34;22.30;72.00
76263;DHT22;65080;50.908;6.916;2023-09-18T04:03:03;22.30;72.00
76263;DHT22;65080;50.908;6.916;2023-09-18T04:05:31;22.30;72.10
76263;DHT22;65080;50.908;6.916;2023-09-18T04:07:59;22.30;72.10
76263;DHT22;65080;50.908;6.916;2023-09-18T04:10:29;22.30;72.20
76263;DHT22;65080;50.908;6.916;2023-09-18T04:12:57;22.30;72.20
76263;DHT22;65080;50.908;6.916;2023-09-18T04:15:26;22.30;72.20
76263;DHT22;65080;50.908;6.916;2023-09-18T04:17:54;22.40;72.30
76263;DHT22;65080;50.908;6.916;2023-09-18T04:20:23;22.40;72.20
76263;DHT22;65080;50.908;6.916;2023-09-18T04:23:18;22.40;72.20
76263;DHT22;65080;50.908;6.916;2023-09-18T04:25:48;22.40;72.20
76263;DHT22;65080;50.908;6.916;2023-09-18T04:28:18;22.40;72.10
76263;DHT22;65080;50.908;6.916;2023-09-18T04:30:47;22.40;72.20
76263;DHT22;65080;50.908;6.916;2023-09-18T04:33:16;22.40;72.20
76263;DHT22;65080;50.908;6.916;2023-09-18T04:35:44;22.40;72.30
76263;DHT22;65080;50.908;6.916;2023-09-18T04:38:13;22.40;72.30
76263;DHT22;65080;50.908;6.916;2023-09-18T04:40:42;22.40;72.30
76263;DHT22;65080;50.908;6.916;2023-09-18T04:43:14;22.30;72.30
76263;DHT22;65080;50.908;6.916;2023-09-18T04:45:43;22.30;72.30
76263;DHT22;65080;50.908;6.916;2023-09-18T04:48:12;22.30;72.30
76263;DHT22;65080;50.908;6.916;2023-09-18T04:50:40;22.30;72.40
76263;DHT22;65080;50.908;6.916;2023-09-18T04:53:09;22.20;72.40
76263;DHT22;65080;50.908;6.916;2023-09-18T04:55:37;22.30;72.50
76263;DHT22;65080;50.908;6.916;2023-09-18T04:58:06;22.20;72.40
76263;DHT22;65080;50.908;6.916;2023-09-18T05:00:36;22.20;72.40
76263;DHT22;65080;50.908;6.916;2023-09-18T05:03:04;22.20;72.50
76263;DHT22;65080;50.908;6.916;2023-09-18T05:05:33;22.20;72.50
76263;DHT22;65080;50.908;6.916;2023-09-18T05:08:02;22.20;72.40
76263;DHT22;65080;50.908;6.916;2023-09-18T05:10:31;22.20;72.60
76263;DHT22;65080;50.908;6.916;2023-09-18T05:13:00;22.20;72.50
76263;DHT22;65080;50.908;6.916;2023-09-18T05:15:30;22.20;72.70
76263;DHT22;65080;50.908;6.916;2023-09-18T05:18:00;22.20;72.60
76263;DHT22;65080;50.908;6.916;2023-09-18T05:20:30;22.30;73.40
76263;DHT22;65080;50.908;6.916;2023-09-18T05:22:59;22.20;73.30
76263;DHT22;65080;50.908;6.916;2023-09-18T05:25:29;22.20;72.60
76263;DHT22;65080;50.908;6.916;2023-09-18T05:28:00;22.20;72.60
76263;DHT22;65080;50.908;6.916;2023-09-18T05:30:30;22.20;72.70
76263;DHT22;65080;50.908;6.916;2023-09-18T05:33:03;22.20;72.70
76263;DHT22;65080;50.908;6.916;2023-09-18T05:35:33;22.20;72.70
76263;DHT22;65080;50.908;6.916;2023-09-18T05:38:02;22.20;72.80
76263;DHT22;65080;50.908;6.916;2023-09-18T05:40:31;22.20;72.80
76263;DHT22;65080;50.908;6.916;2023-09-18T05:42:59;22.20;72.90
76263;DHT22;65080;50.908;6.916;2023-09-18T05:45:28;22.20;73.00
76263;DHT22;65080;50.908;6.916;2023-09-18T05:47:58;22.20;73.00
76263;DHT22;65080;50.908;6.916;2023-09-18T05:50:34;22.20;73.00
76263;DHT22;65080;50.908;6.916;2023-09-18T05:53:03;22.10;72.90
76263;DHT22;65080;50.908;6.916;2023-09-18T05:55:32;22.20;73.00
76263;DHT22;65080;50.908;6.916;2023-09-18T05:58:02;22.10;73.00
76263;DHT22;65080;50.908;6.916;2023-09-18T06:00:31;22.10;73.10
76263;DHT22;65080;50.908;6.916;2023-09-18T06:03:00;22.10;73.00
76263;DHT22;65080;50.908;6.916;2023-09-18T06:05:29;22.10;72.90
76263;DHT22;65080;50.908;6.916;2023-09-18T06:08:00;22.10;72.90
76263;DHT22;65080;50.908;6.916;2023-09-18T06:10:28;22.20;73.00
76263;DHT22;65080;50.908;6.916;2023-09-18T06:12:57;22.20;72.90
76263;DHT22;65080;50.908;6.916;2023-09-18T06:15:31;22.20;72.90
76263;DHT22;65080;50.908;6.916;2023-09-18T06:17:59;22.20;72.90
76263;DHT22;65080;50.908;6.916;2023-09-18T06:20:28;22.20;72.90
76263;DHT22;65080;50.908;6.916;2023-09-18T06:22:56;22.20;72.80
76263;DHT22;65080;50.908;6.916;2023-09-18T06:25:25;22.20;72.80
76263;DHT22;65080;50.908;6.916;2023-09-18T06:27:54;22.20;72.80
76263;DHT22;65080;50.908;6.916;2023-09-18T06:30:22;22.20;72.70
76263;DHT22;65080;50.908;6.916;2023-09-18T06:32:50;22.20;72.60
76263;DHT22;65080;50.908;6.916;2023-09-18T06:35:20;22.20;72.60
76263;DHT22;65080;50.908;6.916;2023-09-18T06:37:48;22.30;72.70
76263;DHT22;65080;50.908;6.916;2023-09-18T06:40:17;22.20;72.60
76263;DHT22;65080;50.908;6.916;2023-09-18T06:42:47;22.20;72.60
76263;DHT22;65080;50.908;6.916;2023-09-18T06:45:15;22.20;72.50
76263;DHT22;65080;50.908;6.916;2023-09-18T06:47:44;22.20;72.40
76263;DHT22;65080;50.908;6.916;2023-09-18T06:50:12;22.30;72.50
76263;DHT22;65080;50.908;6.916;2023-09-18T06:52:40;22.30;72.40
76263;DHT22;65080;50.908;6.916;2023-09-18T06:55:09;22.30;72.40
76263;DHT22;65080;50.908;6.916;2023-09-18T06:57:37;22.30;72.30
76263;DHT22;65080;50.908;6.916;2023-09-18T07:00:08;22.30;72.20
76263;DHT22;65080;50.908;6.916;2023-09-18T07:02:37;22.40;72.30
76263;DHT22;65080;50.908;6.916;2023-09-18T07:05:05;22.40;72.20
76263;DHT22;65080;50.908;6.916;2023-09-18T07:07:34;22.40;72.10
76263;DHT22;65080;50.908;6.916;2023-09-18T07:10:02;22.50;72.10
76263;DHT22;65080;50.908;6.916;2023-09-18T07:12:32;22.50;72.10
76263;DHT22;65080;50.908;6.916;2023-09-18T07:15:00;22.50;71.90
76263;DHT22;65080;50.908;6.916;2023-09-18T07:17:33;22.60;71.90
76263;DHT22;65080;50.908;6.916;2023-09-18T07:20:03;22.50;71.80
76263;DHT22;65080;50.908;6.916;2023-09-18T07:22:37;22.60;71.80
76263;DHT22;65080;50.908;6.916;2023-09-18T07:25:06;22.60;71.70
76263;DHT22;65080;50.908;6.916;2023-09-18T07:27:35;22.70;71.80
76263;DHT22;65080;50.908;6.916;2023-09-18T07:30:07;22.70;71.70
76263;DHT22;65080;50.908;6.916;2023-09-18T07:32:39;22.70;71.50
76263;DHT22;65080;50.908;6.916;2023-09-18T07:35:08;22.80;71.50
76263;DHT22;65080;50.908;6.916;2023-09-18T07:37:36;22.80;71.40
76263;DHT22;65080;50.908;6.916;2023-09-18T07:40:06;22.80;71.30
76263;DHT22;65080;50.908;6.916;2023-09-18T07:42:35;22.80;71.20
76263;DHT22;65080;50.908;6.916;2023-09-18T07:45:04;22.90;71.30
76263;DHT22;65080;50.908;6.916;2023-09-18T07:47:33;22.80;71.20
76263;DHT22;65080;50.908;6.916;2023-09-18T07:50:03;22.80;71.00
76263;DHT22;65080;50.908;6.916;2023-09-18T07:52:32;22.80;70.90
76263;DHT22;65080;50.908;6.916;2023-09-18T07:55:00;22.90;70.90
76263;DHT22;65080;50.908;6.916;2023-09-18T07:57:28;22.90;70.90
76263;DHT22;65080;50.908;6.916;2023-09-18T07:59:58;22.90;70.80
76263;DHT22;65080;50.908;6.916;2023-09-18T08:02:30;22.90;70.70
76263;DHT22;65080;50.908;6.916;2023-09-18T08:04:59;22.90;70.60
76263;DHT22;65080;50.908;6.916;2023-09-18T08:07:29;22.90;70.60
76263;DHT22;65080;50.908;6.916;2023-09-18T08:09:58;22.90;70.50
76263;DHT22;65080;50.908;6.916;2023-09-18T08:12:27;22.80;70.40
76263;DHT22;65080;50.908;6.916;2023-09-18T08:14:57;22.80;70.50
76263;DHT22;65080;50.908;6.916;2023-09-18T08:17:26;22.80;70.40
76263;DHT22;65080;50.908;6.916;2023-09-18T08:19:54;22.80;70.40
76263;DHT22;65080;50.908;6.916;2023-09-18T08:22:23;22.80;70.30
76263;DHT22;65080;50.908;6.916;2023-09-18T08:24:52;22.80;70.20
76263;DHT22;65080;50.908;6.916;2023-09-18T08:27:23;22.80;70.10
76263;DHT22;65080;50.908;6.916;2023-09-18T08:29:52;22.80;70.10
76263;DHT22;65080;50.908;6.916;2023-09-18T08:32:20;22.80;70.10
76263;DHT22;65080;50.908;6.916;2023-09-18T08:34:49;22.90;70.10
76263;DHT22;65080;50.908;6.916;2023-09-18T08:37:17;22.90;70.00
76263;DHT22;65080;50.908;6.916;2023-09-18T08:39:45;23.00;69.90
76263;DHT22;65080;50.908;6.916;2023-09-18T08:42:15;23.00;69.80
76263;DHT22;65080;50.908;6.916;2023-09-18T08:44:45;23.00;69.70
76263;DHT22;65080;50.908;6.916;2023-09-18T08:47:18;23.00;69.70
76263;DHT22;65080;50.908;6.916;2023-09-18T08:49:49;23.10;69.80
76263;DHT22;65080;50.908;6.916;2023-09-18T08:52:20;23.10;69.60
76263;DHT22;65080;50.908;6.916;2023-09-18T08:54:50;23.20;69.50
76263;DHT22;65080;50.908;6.916;2023-09-18T08:57:21;23.20;69.40
76263;DHT22;65080;50.908;6.916;2023-09-18T08:59:51;23.30;69.40
76263;DHT22;65080;50.908;6.916;2023-09-18T09:02:20;23.20;69.20
76263;DHT22;65080;50.908;6.916;2023-09-18T09:04:49;23.20;69.20
76263;DHT22;65080;50.908;6.916;2023-09-18T09:07:19;23.30;69.20
76263;DHT22;65080;50.908;6.916;2023-09-18T09:09:47;23.30;69.10
76263;DHT22;65080;50.908;6.916;2023-09-18T09:12:15;23.40;69.00
76263;DHT22;65080;50.908;6.916;2023-09-18T09:15:02;23.40;68.90
76263;DHT22;65080;50.908;6.916;2023-09-18T09:17:31;23.40;68.70
76263;DHT22;65080;50.908;6.916;2023-09-18T09:20:08;23.40;68.90
76263;DHT22;65080;50.908;6.916;2023-09-18T09:22:38;23.40;68.80
76263;DHT22;65080;50.908;6.916;2023-09-18T09:25:26;23.50;68.80
76263;DHT22;65080;50.908;6.916;2023-09-18T09:27:54;23.50;68.60
76263;DHT22;65080;50.908;6.916;2023-09-18T09:30:25;23.60;68.60
76263;DHT22;65080;50.908;6.916;2023-09-18T09:32:55;23.60;68.40
76263;DHT22;65080;50.908;6.916;2023-09-18T09:35:27;23.60;68.30
76263;DHT22;65080;50.908;6.916;2023-09-18T09:38:10;23.60;68.10
76263;DHT22;65080;50.908;6.916;2023-09-18T09:40:48;23.60;67.90
76263;DHT22;65080;50.908;6.916;2023-09-18T09:43:19;23.60;68.00
76263;DHT22;65080;50.908;6.916;2023-09-18T09:45:49;23.60;67.90
76263;DHT22;65080;50.908;6.916;2023-09-18T09:48:20;23.60;67.90
76263;DHT22;65080;50.908;6.916;2023-09-18T09:50:49;23.60;67.90
76263;DHT22;65080;50.908;6.916;2023-09-18T09:53:18;23.70;67.90
76263;DHT22;65080;50.908;6.916;2023-09-18T09:55:54;23.80;67.80
76263;DHT22;65080;50.908;6.916;2023-09-18T09:58:27;23.80;67.50
76263;DHT22;65080;50.908;6.916;2023-09-18T10:01:03;23.80;67.40
76263;DHT22;65080;50.908;6.916;2023-09-18T10:03:38;23.80;67.30
76263;DHT22;65080;50.908;6.916;2023-09-18T10:06:09;23.90;67.40
76263;DHT22;65080;50.908;6.916;2023-09-18T10:08:40;23.80;67.10
76263;DHT22;65080;50.908;6.916;2023-09-18T10:11:09;23.80;67.10
76263;DHT22;65080;50.908;6.916;2023-09-18T10:13:47;23.80;67.10
76263;DHT22;65080;50.908;6.916;2023-09-18T10:16:18;23.80;66.90
76263;DHT22;65080;50.908;6.916;2023-09-18T10:18:56;23.90;67.00
76263;DHT22;65080;50.908;6.916;2023-09-18T10:21:29;23.90;66.90
76263;DHT22;65080;50.908;6.916;2023-09-18T10:24:07;24.00;66.90
76263;DHT22;65080;50.908;6.916;2023-09-18T10:26:44;24.00;66.60
76263;DHT22;65080;50.908;6.916;2023-09-18T10:29:18;24.10;66.60
76263;DHT22;65080;50.908;6.916;2023-09-18T10:31:50;24.20;66.50
76263;DHT22;65080;50.908;6.916;2023-09-18T10:34:19;24.20;67.00
76263;DHT22;65080;50.908;6.916;2023-09-18T10:36:49;24.30;66.10
76263;DHT22;65080;50.908;6.916;2023-09-18T10:39:18;24.40;66.10
76263;DHT22;65080;50.908;6.916;2023-09-18T10:41:48;24.40;65.90
76263;DHT22;65080;50.908;6.916;2023-09-18T10:44:16;24.40;65.80
76263;DHT22;65080;50.908;6.916;2023-09-18T10:46:45;24.50;65.70
76263;DHT22;65080;50.908;6.916;2023-09-18T10:49:15;24.50;65.50
76263;DHT22;65080;50.908;6.916;2023-09-18T10:51:45;24.60;65.40
76263;DHT22;65080;50.908;6.916;2023-09-18T10:54:16;24.60;65.20
76263;DHT22;65080;50.908;6.916;2023-09-18T10:56:45;24.70;65.20
76263;DHT22;65080;50.908;6.916;2023-09-18T10:59:15;24.70;65.00
76263;DHT22;65080;50.908;6.916;2023-09-18T11:01:46;24.80;64.90
76263;DHT22;65080;50.908;6.916;2023-09-18T11:04:19;24.80;64.80
76263;DHT22;65080;50.908;6.916;2023-09-18T11:07:02;24.90;64.70
76263;DHT22;65080;50.908;6.916;2023-09-18T11:09:40;24.90;64.30
76263;DHT22;65080;50.908;6.916;2023-09-18T11:12:09;25.00;64.40
76263;DHT22;65080;50.908;6.916;2023-09-18T11:14:46;25.00;64.20
76263;DHT22;65080;50.908;6.916;2023-09-18T11:17:32;25.10;63.80
76263;DHT22;65080;50.908;6.916;2023-09-18T11:20:08;25.20;63.50
76263;DHT22;65080;50.908;6.916;2023-09-18T11:22:40;25.30;63.40
76263;DHT22;65080;50.908;6.916;2023-09-18T11:25:44;25.40;63.20
76263;DHT22;65080;50.908;6.916;2023-09-18T11:28:14;25.50;62.70
76263;DHT22;65080;50.908;6.916;2023-09-18T11:30:51;25.60;63.50
76263;DHT22;65080;50.908;6.916;2023-09-18T11:33:36;25.60;62.40
76263;DHT22;65080;50.908;6.916;2023-09-18T11:36:08;25.70;62.90
76263;DHT22;65080;50.908;6.916;2023-09-18T11:38:52;25.70;62.10
76263;DHT22;65080;50.908;6.916;2023-09-18T11:41:26;25.70;61.80
76263;DHT22;65080;50.908;6.916;2023-09-18T11:46:57;25.70;61.40
76263;DHT22;65080;50.908;6.916;2023-09-18T11:49:30;25.80;61.60
76263;DHT22;65080;50.908;6.916;2023-09-18T11:52:01;25.80;61.40
76263;DHT22;65080;50.908;6.916;2023-09-18T11:54:33;25.80;61.00
76263;DHT22;65080;50.908;6.916;2023-09-18T11:57:05;25.80;61.00
76263;DHT22;65080;50.908;6.916;2023-09-18T11:59:36;25.80;60.80
76263;DHT22;65080;50.908;6.916;2023-09-18T12:02:11;26.00;60.80
76263;DHT22;65080;50.908;6.916;2023-09-18T12:04:47;26.00;60.50
76263;DHT22;65080;50.908;6.916;2023-09-18T12:07:17;26.00;60.30
76263;DHT22;65080;50.908;6.916;2023-09-18T12:09:46;26.00;60.10
76263;DHT22;65080;50.908;6.916;2023-09-18T12:12:15;26.10;60.00
76263;DHT22;65080;50.908;6.916;2023-09-18T12:14:46;26.10;59.70
76263;DHT22;65080;50.908;6.916;2023-09-18T12:17:15;26.10;59.60
76263;DHT22;65080;50.908;6.916;2023-09-18T12:19:51;26.10;59.40
76263;DHT22;65080;50.908;6.916;2023-09-18T12:22:26;26.10;59.20
76263;DHT22;65080;50.908;6.916;2023-09-18T12:25:08;26.20;59.10
76263;DHT22;65080;50.908;6.916;2023-09-18T12:27:42;26.20;58.80
76263;DHT22;65080;50.908;6.916;2023-09-18T12:30:11;26.20;58.80
76263;DHT22;65080;50.908;6.916;2023-09-18T12:32:42;26.30;58.60
76263;DHT22;65080;50.908;6.916;2023-09-18T12:35:13;26.40;58.40
76263;DHT22;65080;50.908;6.916;2023-09-18T12:37:43;26.40;58.30
76263;DHT22;65080;50.908;6.916;2023-09-18T12:40:25;26.40;58.20
76263;DHT22;65080;50.908;6.916;2023-09-18T12:42:55;26.50;57.90
76263;DHT22;65080;50.908;6.916;2023-09-18T12:45:24;26.60;57.90
76263;DHT22;65080;50.908;6.916;2023-09-18T12:47:54;26.60;57.80
76263;DHT22;65080;50.908;6.916;2023-09-18T12:50:24;26.60;57.60
76263;DHT22;65080;50.908;6.916;2023-09-18T12:53:06;26.50;57.50
76263;DHT22;65080;50.908;6.916;2023-09-18T12:55:35;26.60;57.20
76263;DHT22;65080;50.908;6.916;2023-09-18T12:58:04;26.60;57.30
76263;DHT22;65080;50.908;6.916;2023-09-18T13:00:35;26.60;57.10
76263;DHT22;65080;50.908;6.916;2023-09-18T13:03:04;26.60;57.00
76263;DHT22;65080;50.908;6.916;2023-09-18T13:05:32;26.70;56.90
76263;DHT22;65080;50.908;6.916;2023-09-18T13:08:04;26.80;56.70
76263;DHT22;65080;50.908;6.916;2023-09-18T13:10:46;26.90;56.50
76263;DHT22;65080;50.908;6.916;2023-09-18T13:13:17;27.00;56.10
76263;DHT22;65080;50.908;6.916;2023-09-18T13:15:46;27.10;56.20
76263;DHT22;65080;50.908;6.916;2023-09-18T13:18:16;27.30;56.00
76263;DHT22;65080;50.908;6.916;2023-09-18T13:20:46;27.40;55.70
76263;DHT22;65080;50.908;6.916;2023-09-18T13:23:16;27.70;55.70
76263;DHT22;65080;50.908;6.916;2023-09-18T13:25:48;27.90;55.50
76263;DHT22;65080;50.908;6.916;2023-09-18T13:28:16;28.10;55.20
76263;DHT22;65080;50.908;6.916;2023-09-18T13:30:47;28.40;55.00
76263;DHT22;65080;50.908;6.916;2023-09-18T13:33:17;28.50;54.90
76263;DHT22;65080;50.908;6.916;2023-09-18T13:35:46;28.50;54.80
76263;DHT22;65080;50.908;6.916;2023-09-18T13:38:16;28.80;54.70
76263;DHT22;65080;50.908;6.916;2023-09-18T13:40:47;28.80;54.40
76263;DHT22;65080;50.908;6.916;2023-09-18T13:43:15;28.70;54.30
76263;DHT22;65080;50.908;6.916;2023-09-18T13:45:45;28.70;54.20
76263;DHT22;65080;50.908;6.916;2023-09-18T13:48:14;28.90;54.10
76263;DHT22;65080;50.908;6.916;2023-09-18T13:50:43;29.20;53.80
76263;DHT22;65080;50.908;6.916;2023-09-18T13:53:12;29.40;53.40
76263;DHT22;65080;50.908;6.916;2023-09-18T13:55:42;29.50;53.00
76263;DHT22;65080;50.908;6.916;2023-09-18T13:58:10;29.70;52.70
76263;DHT22;65080;50.908;6.916;2023-09-18T14:00:39;29.90;52.40
76263;DHT22;65080;50.908;6.916;2023-09-18T14:03:07;30.00;52.20
76263;DHT22;65080;50.908;6.916;2023-09-18T14:05:35;30.20;51.90
76263;DHT22;65080;50.908;6.916;2023-09-18T14:08:04;30.30;51.40
76263;DHT22;65080;50.908;6.916;2023-09-18T14:10:32;30.30;51.00
76263;DHT22;65080;50.908;6.916;2023-09-18T14:13:02;30.30;50.90
76263;DHT22;65080;50.908;6.916;2023-09-18T14:15:31;30.30;50.50
76263;DHT22;65080;50.908;6.916;2023-09-18T14:17:59;30.20;50.50
76263;DHT22;65080;50.908;6.916;2023-09-18T14:20:30;30.10;50.40
76263;DHT22;65080;50.908;6.916;2023-09-18T14:22:59;30.20;50.30
76263;DHT22;65080;50.908;6.916;2023-09-18T14:25:27;30.50;50.10
76263;DHT22;65080;50.908;6.916;2023-09-18T14:27:55;30.70;49.60
76263;DHT22;65080;50.908;6.916;2023-09-18T14:30:25;30.70;49.40
76263;DHT22;65080;50.908;6.916;2023-09-18T14:32:58;30.60;49.40
76263;DHT22;65080;50.908;6.916;2023-09-18T14:35:28;30.70;49.20
76263;DHT22;65080;50.908;6.916;2023-09-18T14:37:56;30.80;49.00
76263;DHT22;65080;50.908;6.916;2023-09-18T14:40:25;30.80;48.90
76263;DHT22;65080;50.908;6.916;2023-09-18T14:42:53;30.70;48.70
76263;DHT22;65080;50.908;6.916;2023-09-18T14:45:21;30.60;48.50
76263;DHT22;65080;50.908;6.916;2023-09-18T14:47:51;30.50;48.70
76263;DHT22;65080;50.908;6.916;2023-09-18T14:50:19;30.40;48.50
76263;DHT22;65080;50.908;6.916;2023-09-18T14:52:48;30.30;48.40
76263;DHT22;65080;50.908;6.916;2023-09-18T14:55:17;30.30;48.30
76263;DHT22;65080;50.908;6.916;2023-09-18T14:57:45;30.30;48.20
76263;DHT22;65080;50.908;6.916;2023-09-18T15:00:21;30.10;48.10
76263;DHT22;65080;50.908;6.916;2023-09-18T15:02:51;29.90;48.10
76263;DHT22;65080;50.908;6.916;2023-09-18T15:05:19;29.80;48.00
76263;DHT22;65080;50.908;6.916;2023-09-18T15:07:47;29.70;47.90
76263;DHT22;65080;50.908;6.916;2023-09-18T15:10:16;29.70;47.70
76263;DHT22;65080;50.908;6.916;2023-09-18T15:12:45;29.80;47.50
76263;DHT22;65080;50.908;6.916;2023-09-18T15:15:13;29.90;47.30
76263;DHT22;65080;50.908;6.916;2023-09-18T15:17:41;30.00;47.10
76263;DHT22;65080;50.908;6.916;2023-09-18T15:20:11;30.00;47.00
76263;DHT22;65080;50.908;6.916;2023-09-18T15:22:40;30.20;46.90
76263;DHT22;65080;50.908;6.916;2023-09-18T15:25:08;30.30;46.60
76263;DHT22;65080;50.908;6.916;2023-09-18T15:27:37;30.30;46.50
76263;DHT22;65080;50.908;6.916;2023-09-18T15:30:06;30.40;46.30
76263;DHT22;65080;50.908;6.916;2023-09-18T15:32:47;30.40;46.40
76263;DHT22;65080;50.908;6.916;2023-09-18T15:35:18;30.50;46.10
76263;DHT22;65080;50.908;6.916;2023-09-18T15:37:46;30.60;46.10
76263;DHT22;65080;50.908;6.916;2023-09-18T15:40:15;30.60;46.00
76263;DHT22;65080;50.908;6.916;2023-09-18T15:42:46;30.60;45.80
76263;DHT22;65080;50.908;6.916;2023-09-18T15:45:14;30.40;45.70
76263;DHT22;65080;50.908;6.916;2023-09-18T15:47:43;30.20;45.70
76263;DHT22;65080;50.908;6.916;2023-09-18T15:50:13;30.00;45.80
76263;DHT22;65080;50.908;6.916;2023-09-18T15:52:43;29.70;45.90